Floral, Canada
Current Conditions -  °F | °C
As of 8:20 PM on Thursday 18 Dec 2014 (Local Time) from CYXE Reporting Station
Light Snow Light Snow  
Wind Chill: 14°   Ceiling: 500
Heat Index: 21°   Visibility: 6mi
Dew Point: 19°   Wind: 6mph
Humidity: 93%   Direction: 290°WNW
Pressure: 29.9"   Gusts: NA
Location:  52.07°N, 106.47°W
Report Text: CYXE 190220Z 29005KT 6SM -SN OVC005 M06/M07 A2990 RMK ST8 SLP160
Loading
Personal Weather Stations






























Interactive Weather Map New forecast layout! Learn more

10-Day Weather Forecast

Advertisements
Track Severe Weather on mobile